createdAt,value
2023-01-22T00:01:29.233Z,15.40
2023-01-22T00:04:55.817Z,15.70
2023-01-22T00:08:22.676Z,14.00
2023-01-22T00:11:50.343Z,14.43
2023-01-22T00:15:18.486Z,11.88
2023-01-22T00:18:45.233Z,15.93
2023-01-22T00:22:12.993Z,14.95
2023-01-22T00:25:39.709Z,16.80
2023-01-22T00:29:06.588Z,12.27
2023-01-22T00:32:34.802Z,24.40
2023-01-22T00:36:05.011Z,13.18
2023-01-22T00:39:31.599Z,15.10
2023-01-22T00:42:58.987Z,12.88
2023-01-22T00:46:26.177Z,11.40
2023-01-22T00:49:54.339Z,20.00
2023-01-22T00:53:21.097Z,21.10
2023-01-22T00:56:51.580Z,18.13
2023-01-22T01:00:18.872Z,15.27
2023-01-22T01:03:48.464Z,17.50
2023-01-22T01:07:17.298Z,13.68
2023-01-22T01:10:44.294Z,14.30
2023-01-22T01:14:11.041Z,19.52
2023-01-22T01:17:37.783Z,14.98
2023-01-22T01:21:07.529Z,17.85
2023-01-22T01:24:36.647Z,15.55
2023-01-22T01:28:05.378Z,17.08
2023-01-22T01:31:32.359Z,17.20
2023-01-22T01:34:59.473Z,16.08
2023-01-22T01:38:26.393Z,16.17
2023-01-22T01:41:54.412Z,15.90
2023-01-22T01:45:28.176Z,15.13
2023-01-22T01:48:57.142Z,19.13
2023-01-22T01:52:28.290Z,19.70
2023-01-22T01:56:00.467Z,18.48
2023-01-22T01:59:33.601Z,19.27
2023-01-22T02:03:01.784Z,20.83
2023-01-22T02:06:31.530Z,18.45
2023-01-22T02:09:58.897Z,17.15
2023-01-22T02:13:29.645Z,16.23
2023-01-22T02:17:02.857Z,15.35
2023-01-22T02:20:29.443Z,17.10
2023-01-22T02:23:57.553Z,15.57
2023-01-22T02:27:24.845Z,14.93
2023-01-22T02:30:51.854Z,13.13
2023-01-22T02:34:19.508Z,15.40
2023-01-22T02:37:47.125Z,14.07
2023-01-22T02:41:15.517Z,18.58
2023-01-22T02:44:42.331Z,37.80
2023-01-22T02:48:09.668Z,12.85
2023-01-22T02:51:36.270Z,11.25
2023-01-22T02:55:04.129Z,11.43
2023-01-22T02:58:32.612Z,9.93
2023-01-22T03:02:07.031Z,10.93
2023-01-22T03:05:33.810Z,11.20
2023-01-22T03:09:04.036Z,15.52
2023-01-22T03:12:55.480Z,15.20
2023-01-22T03:16:40.167Z,14.07
2023-01-22T03:20:25.394Z,14.15
2023-01-22T03:23:54.918Z,13.40
2023-01-22T03:27:24.657Z,15.15
2023-01-22T03:30:53.030Z,12.77
2023-01-22T03:34:21.092Z,14.85
2023-01-22T03:37:49.633Z,17.10
2023-01-22T03:41:18.248Z,14.90
2023-01-22T03:44:46.977Z,17.40
2023-01-22T03:48:15.486Z,21.38
2023-01-22T03:51:42.779Z,25.63
2023-01-22T03:55:11.081Z,17.90
2023-01-22T03:58:38.562Z,29.42
2023-01-22T04:02:08.004Z,17.33
2023-01-22T04:05:45.537Z,25.83
2023-01-22T04:09:12.143Z,20.17
2023-01-22T04:12:45.454Z,24.08
2023-01-22T04:16:15.629Z,23.23
2023-01-22T04:20:01.842Z,19.40
2023-01-22T04:23:43.299Z,37.30
2023-01-22T04:27:10.339Z,32.30
2023-01-22T04:30:37.236Z,26.25
2023-01-22T04:34:23.143Z,29.73
2023-01-22T04:38:13.690Z,30.23
2023-01-22T04:41:41.756Z,41.58
2023-01-22T04:45:09.422Z,48.90
2023-01-22T04:48:39.118Z,27.63
2023-01-22T04:52:06.113Z,44.47
2023-01-22T04:55:34.613Z,41.60
2023-01-22T04:59:05.032Z,71.45
2023-01-22T05:02:31.718Z,38.72
2023-01-22T05:05:58.540Z,37.75
2023-01-22T05:09:25.766Z,48.08
2023-01-22T05:12:56.428Z,40.30
2023-01-22T05:16:25.421Z,44.45
2023-01-22T05:19:52.819Z,42.97
2023-01-22T05:23:21.421Z,35.33
2023-01-22T05:26:49.074Z,49.15
2023-01-22T05:30:24.963Z,50.42
2023-01-22T05:33:59.307Z,40.13
2023-01-22T05:37:29.889Z,27.25
2023-01-22T05:40:57.569Z,30.55
2023-01-22T05:44:26.283Z,22.58
2023-01-22T05:47:56.249Z,28.75
2023-01-22T05:51:48.696Z,31.75
2023-01-22T05:55:16.891Z,20.15
2023-01-22T05:58:46.005Z,42.03
2023-01-22T06:02:14.919Z,25.85
2023-01-22T06:05:43.725Z,26.65
2023-01-22T06:09:12.601Z,18.10
2023-01-22T06:12:39.747Z,26.10
2023-01-22T06:16:07.535Z,18.98
2023-01-22T06:19:54.450Z,29.42
2023-01-22T06:23:22.933Z,20.75
2023-01-22T06:26:52.303Z,24.65
2023-01-22T06:30:20.984Z,18.25
2023-01-22T06:33:51.641Z,27.45
2023-01-22T06:37:21.355Z,24.92
2023-01-22T06:40:52.017Z,22.02
2023-01-22T06:44:19.921Z,26.98
2023-01-22T06:47:47.833Z,18.58
2023-01-22T06:51:15.758Z,22.88
2023-01-22T06:54:44.228Z,23.65
2023-01-22T06:58:11.031Z,25.70
2023-01-22T07:01:37.934Z,20.00
2023-01-22T07:05:04.863Z,28.70
2023-01-22T07:08:33.284Z,28.02
2023-01-22T07:12:02.383Z,23.35
2023-01-22T07:15:29.656Z,21.90
2023-01-22T07:18:56.439Z,18.08
2023-01-22T07:22:23.555Z,18.65
2023-01-22T07:25:50.150Z,22.85
2023-01-22T07:29:18.648Z,24.75
2023-01-22T07:32:46.309Z,19.25
2023-01-22T07:36:13.046Z,20.83
2023-01-22T07:39:39.742Z,21.23
2023-01-22T07:43:07.349Z,20.75
2023-01-22T07:46:35.830Z,21.45
2023-01-22T07:50:02.994Z,18.85
2023-01-22T07:53:30.251Z,20.73
2023-01-22T07:56:56.881Z,20.50
2023-01-22T08:00:23.770Z,21.70
2023-01-22T08:03:52.453Z,19.05
2023-01-22T08:07:20.077Z,23.00
2023-01-22T08:10:46.967Z,27.48
2023-01-22T08:14:13.922Z,19.70
2023-01-22T08:17:41.191Z,26.00
2023-01-22T08:21:10.445Z,25.95
2023-01-22T08:24:37.672Z,26.40
2023-01-22T08:28:05.631Z,24.95
2023-01-22T08:31:33.149Z,21.80
2023-01-22T08:35:00.531Z,22.42
2023-01-22T08:38:28.933Z,19.77
2023-01-22T08:41:57.950Z,21.70
2023-01-22T08:45:25.988Z,18.02
2023-01-22T08:48:55.639Z,21.90
2023-01-22T08:52:22.433Z,24.20
2023-01-22T08:55:57.566Z,28.80
2023-01-22T08:59:24.515Z,24.48
2023-01-22T09:02:51.827Z,22.75
2023-01-22T09:06:19.431Z,22.77
2023-01-22T09:09:46.285Z,24.75
2023-01-22T09:13:14.817Z,32.63
2023-01-22T09:16:41.734Z,27.05
2023-01-22T09:20:12.621Z,22.73
2023-01-22T09:23:39.429Z,34.38
2023-01-22T09:27:06.465Z,33.25
2023-01-22T09:30:35.869Z,30.15
2023-01-22T09:34:03.540Z,34.13
2023-01-22T09:37:30.837Z,31.42
2023-01-22T09:40:58.928Z,26.48
2023-01-22T09:44:33.364Z,25.17
2023-01-22T09:48:09.828Z,26.65
2023-01-22T09:51:37.628Z,28.58
2023-01-22T09:55:07.055Z,30.10
2023-01-22T09:58:35.902Z,26.25
2023-01-22T10:02:19.610Z,32.22
2023-01-22T10:05:52.077Z,38.97
2023-01-22T10:09:21.911Z,29.70
2023-01-22T10:12:55.307Z,29.73
2023-01-22T10:16:22.946Z,25.85
2023-01-22T10:19:55.440Z,26.10
2023-01-22T10:23:25.588Z,35.80
2023-01-22T10:26:56.104Z,26.48
2023-01-22T10:30:27.768Z,36.78
2023-01-22T10:34:01.847Z,31.35
2023-01-22T10:37:29.807Z,30.77
2023-01-22T10:40:59.469Z,27.40
2023-01-22T10:44:30.821Z,27.00
2023-01-22T10:48:12.747Z,29.73
2023-01-22T10:51:43.620Z,30.23
2023-01-22T10:55:22.554Z,34.10
2023-01-22T10:58:52.615Z,40.08
2023-01-22T11:02:28.280Z,35.05
2023-01-22T11:06:00.297Z,33.25
2023-01-22T11:09:33.427Z,48.05
2023-01-22T11:13:09.608Z,42.30
2023-01-22T11:16:42.182Z,47.17
2023-01-22T11:20:18.404Z,45.00
2023-01-22T11:23:55.186Z,49.17
2023-01-22T11:27:38.576Z,50.72
2023-01-22T11:31:19.856Z,49.92
2023-01-22T11:34:59.695Z,36.42
2023-01-22T11:38:39.983Z,35.38
2023-01-22T11:42:20.429Z,36.88
2023-01-22T11:46:13.107Z,31.75
2023-01-22T11:49:58.370Z,27.27
2023-01-22T11:53:41.411Z,36.97
2023-01-22T11:57:20.556Z,31.13
2023-01-22T12:01:11.647Z,33.05
2023-01-22T12:04:55.741Z,37.60
2023-01-22T12:08:57.329Z,37.20
2023-01-22T12:12:42.128Z,31.15
2023-01-22T12:16:25.120Z,30.17
2023-01-22T12:20:08.810Z,31.45
2023-01-22T12:23:42.127Z,31.35
2023-01-22T12:27:17.090Z,34.47
2023-01-22T12:30:54.594Z,32.90
2023-01-22T12:34:27.039Z,37.10
2023-01-22T12:38:01.161Z,35.28
2023-01-22T12:41:50.738Z,30.25
2023-01-22T12:45:24.865Z,35.22
2023-01-22T12:48:59.029Z,30.75
2023-01-22T12:52:32.260Z,30.35
2023-01-22T12:56:01.687Z,32.72
2023-01-22T12:59:32.507Z,31.70
2023-01-22T13:03:00.363Z,25.33
2023-01-22T13:06:40.021Z,23.17
2023-01-22T13:10:25.086Z,30.05
2023-01-22T13:14:03.197Z,31.70
2023-01-22T13:17:38.045Z,31.63
2023-01-22T13:21:16.050Z,23.35
2023-01-22T13:24:50.267Z,22.42
2023-01-22T13:28:22.248Z,26.98
2023-01-22T13:31:58.908Z,23.05
2023-01-22T13:35:26.615Z,25.75
2023-01-22T13:38:54.984Z,22.33
2023-01-22T13:42:28.276Z,28.27
2023-01-22T13:45:56.595Z,31.48
2023-01-22T13:49:27.620Z,28.80
2023-01-22T13:52:55.670Z,26.40
2023-01-22T13:56:26.811Z,31.17
2023-01-22T14:00:05.391Z,31.00
2023-01-22T14:03:35.981Z,33.53
2023-01-22T14:07:04.739Z,27.80
2023-01-22T14:10:33.252Z,31.00
2023-01-22T14:14:01.361Z,33.95
2023-01-22T14:17:39.260Z,31.00
2023-01-22T14:21:09.124Z,32.75
2023-01-22T14:24:36.721Z,24.27
2023-01-22T14:28:04.222Z,30.08
2023-01-22T14:31:31.320Z,30.73
2023-01-22T14:34:58.204Z,26.58
2023-01-22T14:38:27.145Z,41.10
2023-01-22T14:41:54.397Z,27.45
2023-01-22T14:45:21.342Z,26.83
2023-01-22T14:48:49.858Z,21.23
2023-01-22T14:52:16.755Z,22.48
2023-01-22T14:55:45.625Z,13.65
2023-01-22T14:59:12.988Z,14.82
2023-01-22T15:02:40.128Z,13.20
2023-01-22T15:06:08.330Z,20.90
2023-01-22T15:09:35.595Z,15.68
2023-01-22T15:13:04.210Z,15.10
2023-01-22T15:16:31.069Z,14.23
2023-01-22T15:19:58.069Z,15.30
2023-01-22T15:23:25.006Z,8.85
2023-01-22T15:27:02.107Z,13.55
2023-01-22T15:30:30.584Z,11.23
2023-01-22T15:33:58.126Z,18.63
2023-01-22T15:37:25.312Z,14.30
2023-01-22T15:41:02.527Z,12.00
2023-01-22T15:44:30.470Z,13.90
2023-01-22T15:47:59.284Z,14.73
2023-01-22T15:51:26.497Z,12.07
2023-01-22T15:54:54.818Z,17.95
2023-01-22T15:58:21.826Z,13.90
2023-01-22T16:01:49.744Z,25.15
2023-01-22T16:05:20.487Z,26.42
2023-01-22T16:08:48.577Z,19.33
2023-01-22T16:12:15.802Z,18.13
2023-01-22T16:15:42.453Z,28.70
2023-01-22T16:19:11.135Z,23.63
2023-01-22T16:22:39.825Z,21.70
2023-01-22T16:26:09.461Z,23.70
2023-01-22T16:29:36.617Z,22.60
2023-01-22T16:33:17.199Z,23.35
2023-01-22T16:36:46.170Z,21.02
2023-01-22T16:40:19.014Z,20.15
2023-01-22T16:43:58.808Z,14.00
2023-01-22T16:47:26.789Z,15.25
2023-01-22T16:50:54.044Z,18.23
2023-01-22T16:54:23.639Z,19.17
2023-01-22T16:57:50.692Z,17.80
2023-01-22T17:01:18.728Z,14.38
2023-01-22T17:04:46.206Z,17.02
2023-01-22T17:08:13.345Z,13.48
2023-01-22T17:11:43.757Z,16.23
2023-01-22T17:15:11.042Z,13.27
2023-01-22T17:18:38.644Z,12.93
2023-01-22T17:22:06.437Z,12.77
2023-01-22T17:25:33.914Z,12.05
2023-01-22T17:29:02.630Z,15.05
2023-01-22T17:32:30.107Z,14.57
2023-01-22T17:35:59.439Z,14.70
2023-01-22T17:39:27.362Z,12.98
2023-01-22T17:42:54.402Z,12.95
2023-01-22T17:46:23.927Z,14.73
2023-01-22T17:49:51.536Z,13.15
2023-01-22T17:53:18.925Z,15.32
2023-01-22T17:56:48.608Z,13.80
2023-01-22T18:00:17.535Z,15.93
2023-01-22T18:03:46.819Z,15.27
2023-01-22T18:07:14.501Z,15.88
2023-01-22T18:10:41.167Z,13.68
2023-01-22T18:14:10.438Z,12.48
2023-01-22T18:17:38.806Z,13.50
2023-01-22T18:21:09.717Z,14.85
2023-01-22T18:24:36.850Z,14.90
2023-01-22T18:28:04.282Z,14.10
2023-01-22T18:31:31.369Z,23.90
2023-01-22T18:34:59.421Z,17.50
2023-01-22T18:38:28.907Z,16.65
2023-01-22T18:41:56.325Z,15.55
2023-01-22T18:45:23.628Z,17.02
2023-01-22T18:48:53.964Z,17.77
2023-01-22T18:52:20.907Z,20.75
2023-01-22T18:55:49.793Z,29.17
2023-01-22T18:59:17.483Z,20.35
2023-01-22T19:02:44.724Z,24.25
2023-01-22T19:06:14.825Z,21.63
2023-01-22T19:09:43.618Z,22.25
2023-01-22T19:13:13.409Z,27.75
2023-01-22T19:16:44.312Z,28.88
2023-01-22T19:20:15.459Z,28.10
2023-01-22T19:23:45.117Z,24.38
2023-01-22T19:27:14.718Z,22.88
2023-01-22T19:30:41.989Z,27.13
2023-01-22T19:34:09.112Z,27.42
2023-01-22T19:37:37.602Z,22.17
2023-01-22T19:41:05.409Z,28.90
2023-01-22T19:44:34.863Z,26.65
2023-01-22T19:48:06.858Z,29.75
2023-01-22T19:51:34.077Z,21.58
2023-01-22T19:55:01.148Z,27.75
2023-01-22T19:58:29.109Z,30.00
2023-01-22T20:01:57.863Z,28.85
2023-01-22T20:05:26.695Z,28.38
2023-01-22T20:08:56.812Z,25.67
2023-01-22T20:12:23.930Z,34.65
2023-01-22T20:15:51.027Z,29.70
2023-01-22T20:19:19.730Z,22.45
2023-01-22T20:22:47.139Z,21.42
2023-01-22T20:26:14.864Z,22.92
2023-01-22T20:29:42.106Z,28.30
2023-01-22T20:33:11.191Z,28.05
2023-01-22T20:36:41.642Z,27.58
2023-01-22T20:40:09.516Z,29.80
2023-01-22T20:43:36.852Z,34.38
2023-01-22T20:47:04.732Z,31.23
2023-01-22T20:50:31.419Z,31.67
2023-01-22T20:53:59.559Z,31.35
2023-01-22T20:57:28.004Z,31.92
2023-01-22T21:00:54.874Z,31.98
2023-01-22T21:04:22.500Z,35.15
2023-01-22T21:07:49.340Z,28.33
2023-01-22T21:11:20.413Z,38.53
2023-01-22T21:14:47.950Z,33.95
2023-01-22T21:18:14.801Z,75.03
2023-01-22T21:21:41.860Z,47.55
2023-01-22T21:25:09.329Z,46.67
2023-01-22T21:28:39.763Z,45.72
2023-01-22T21:32:07.319Z,59.72
2023-01-22T21:35:34.239Z,41.63
2023-01-22T21:39:01.226Z,40.95
2023-01-22T21:42:47.597Z,51.03
2023-01-22T21:46:26.246Z,57.78
2023-01-22T21:49:53.784Z,72.47
2023-01-22T21:53:20.418Z,43.28
2023-01-22T21:56:51.376Z,36.10
2023-01-22T22:00:21.368Z,43.22
2023-01-22T22:03:48.984Z,42.83
2023-01-22T22:07:16.449Z,43.33
2023-01-22T22:10:49.722Z,58.80
2023-01-22T22:14:17.288Z,38.60
2023-01-22T22:17:46.643Z,30.88
2023-01-22T22:21:13.436Z,44.47
2023-01-22T22:24:40.799Z,50.03
2023-01-22T22:28:07.826Z,45.17
2023-01-22T22:31:35.018Z,59.10
2023-01-22T22:35:03.524Z,44.45
2023-01-22T22:38:30.348Z,44.03
2023-01-22T22:41:58.790Z,34.15
2023-01-22T22:45:25.788Z,41.17
2023-01-22T22:48:53.727Z,42.83
2023-01-22T22:52:23.085Z,31.38
2023-01-22T22:55:50.042Z,51.55
2023-01-22T22:59:18.725Z,72.93
2023-01-22T23:02:45.462Z,49.78
2023-01-22T23:06:13.564Z,58.33
2023-01-22T23:09:42.954Z,83.50
2023-01-22T23:13:09.575Z,58.17
2023-01-22T23:16:37.828Z,49.55
2023-01-22T23:20:06.566Z,52.40
2023-01-22T23:23:33.088Z,71.25
2023-01-22T23:27:01.818Z,40.72
2023-01-22T23:30:28.843Z,48.60
2023-01-22T23:33:56.634Z,54.72
2023-01-22T23:37:24.226Z,62.72
2023-01-22T23:40:56.862Z,52.20
2023-01-22T23:44:25.081Z,46.33
2023-01-22T23:47:52.360Z,90.18
2023-01-22T23:51:20.315Z,56.97
2023-01-22T23:54:48.174Z,67.15
2023-01-22T23:58:15.261Z,55.00
